Time;durP1;ratioP1;P1;durP2;ratioP2;P2;SDS_P1;SDS_P2;PMS_P1;PMS_P2;Temp;Humidity;BMP_temperature;BMP_pressure;BME280_temperature;BME280_humidity;BME280_pressure;Samples;Min_cycle;Max_cycle;Signal;HPM_P1;HPM_P2
2022/03/25 00:02:14;;;;;;;3.95;3.40;;;22.20;31.60;;;;;;6314589;27;20045;-46
2022/03/25 00:05:16;;;;;;;3.78;2.90;;;22.20;31.60;;;;;;6311370;27;20031;-46
2022/03/25 00:08:18;;;;;;;3.60;3.10;;;22.30;31.60;;;;;;6309842;27;20043;-44
2022/03/25 00:11:19;;;;;;;4.28;3.17;;;22.30;31.70;;;;;;6307585;27;20148;-44
2022/03/25 00:14:21;;;;;;;3.58;3.17;;;22.30;31.70;;;;;;6310594;27;20034;-44
2022/03/25 00:17:23;;;;;;;;;;;22.20;31.60;;;;;;6315570;27;20114;-45
2022/03/25 00:20:24;;;;;;;4.00;2.88;;;22.30;31.60;;;;;;6315623;27;19981;-42
2022/03/25 00:23:26;;;;;;;3.50;3.00;;;22.20;31.60;;;;;;6313200;27;20213;-43
2022/03/25 00:26:27;;;;;;;3.50;2.97;;;22.30;31.60;;;;;;6316463;27;20177;-42
2022/03/25 00:29:32;;;;;;;4.28;3.00;;;22.30;31.60;;;;;;6298087;27;20062;-41
2022/03/25 00:32:37;;;;;;;3.63;2.97;;;22.20;31.60;;;;;;6317231;27;20843;-47
2022/03/25 00:35:38;;;;;;;4.82;3.20;;;22.30;31.60;;;;;;6313599;27;20145;-44
2022/03/25 00:38:40;;;;;;;3.90;3.22;;;22.30;31.60;;;;;;6318069;27;20043;-43
2022/03/25 00:41:44;;;;;;;3.65;3.17;;;22.20;31.60;;;;;;6316541;27;20035;-43
2022/03/25 00:44:47;;;;;;;3.80;3.08;;;22.20;31.60;;;;;;6315212;27;20053;-42
2022/03/25 00:47:49;;;;;;;4.15;3.05;;;22.20;31.60;;;;;;6315945;27;20096;-44
2022/03/25 00:50:51;;;;;;;3.10;2.72;;;22.20;31.60;;;;;;6317147;27;20047;-42
2022/03/25 00:53:53;;;;;;;3.70;2.80;;;22.20;31.60;;;;;;6317671;27;20947;-45
2022/03/25 00:56:55;;;;;;;4.22;3.08;;;22.20;31.70;;;;;;6318140;27;20042;-45
2022/03/25 00:59:58;;;;;;;3.63;2.75;;;22.20;31.60;;;;;;6319213;27;20955;-43
2022/03/25 01:03:00;;;;;;;3.65;2.70;;;22.10;31.60;;;;;;6313792;27;20771;-42
2022/03/25 01:06:03;;;;;;;3.50;2.95;;;22.20;31.60;;;;;;6317277;27;20047;-45
2022/03/25 01:09:04;;;;;;;3.42;3.00;;;22.10;31.60;;;;;;6317520;27;20130;-47
2022/03/25 01:12:08;;;;;;;4.20;3.13;;;22.30;31.70;;;;;;6318590;27;20055;-44
2022/03/25 01:15:10;;;;;;;3.60;3.00;;;22.10;31.60;;;;;;6323187;27;20166;-43
2022/03/25 01:18:16;;;;;;;3.15;2.80;;;22.10;31.60;;;;;;6319305;27;20115;-42
2022/03/25 01:21:17;;;;;;;3.58;2.85;;;22.20;31.60;;;;;;6321143;27;20038;-44
2022/03/25 01:24:19;;;;;;;3.58;3.00;;;22.20;31.60;;;;;;6314680;27;20674;-45
2022/03/25 01:27:22;;;;;;;3.47;2.72;;;22.20;31.70;;;;;;6318508;27;21160;-42
2022/03/25 01:30:23;;;;;;;3.92;2.72;;;22.10;31.60;;;;;;6318783;27;20039;-46
2022/03/25 01:33:25;;;;;;;3.35;2.80;;;22.10;31.50;;;;;;6314850;27;20061;-44
2022/03/25 01:36:27;;;;;;;4.22;2.83;;;22.10;31.50;;;;;;6310894;27;20052;-45
2022/03/25 01:39:29;;;;;;;4.35;2.75;;;22.10;31.50;;;;;;6314398;27;20038;-42
2022/03/25 01:42:30;;;;;;;3.47;3.00;;;22.10;31.50;;;;;;6321181;27;20146;-45
2022/03/25 01:45:34;;;;;;;3.63;2.85;;;22.10;31.60;;;;;;6299142;27;20145;-44
2022/03/25 01:48:36;;;;;;;3.25;2.65;;;22.00;31.50;;;;;;6299696;27;20062;-44
2022/03/25 01:51:39;;;;;;;3.58;2.75;;;22.00;31.50;;;;;;6313724;27;20863;-43
2022/03/25 01:54:40;;;;;;;2.80;2.40;;;22.10;31.50;;;;;;6317688;27;20362;-42
2022/03/25 01:57:43;;;;;;;;;;;22.00;31.40;;;;;;6307844;27;20078;-42
2022/03/25 02:00:45;;;;;;;3.65;2.80;;;22.10;31.50;;;;;;6316906;27;19927;-44
2022/03/25 02:03:48;;;;;;;3.08;2.60;;;22.10;31.50;;;;;;6300265;27;20046;-43
2022/03/25 02:06:51;;;;;;;3.53;2.95;;;22.10;31.50;;;;;;6321433;27;20027;-42
2022/03/25 02:09:53;;;;;;;3.55;2.95;;;22.10;31.50;;;;;;6294115;27;20039;-43
2022/03/25 02:12:55;;;;;;;3.30;2.60;;;22.00;31.40;;;;;;6313694;27;20051;-48
2022/03/25 02:15:57;;;;;;;2.97;2.45;;;22.10;31.50;;;;;;6318010;27;20038;-46
2022/03/25 02:18:59;;;;;;;2.65;2.30;;;22.10;31.40;;;;;;6313011;27;20042;-44
2022/03/25 02:22:03;;;;;;;3.20;2.67;;;22.00;31.40;;;;;;6315897;27;20071;-43
2022/03/25 02:25:11;;;;;;;2.95;2.53;;;22.00;31.40;;;;;;6318994;27;20193;-44
2022/03/25 02:28:15;;;;;;;3.47;2.65;;;21.90;31.40;;;;;;6290521;27;20059;-42
2022/03/25 02:31:20;;;;;;;2.53;2.30;;;22.00;31.40;;;;;;6318582;27;20939;-43
2022/03/25 02:34:22;;;;;;;2.67;2.38;;;22.00;31.40;;;;;;6316665;27;20146;-43
2022/03/25 02:37:25;;;;;;;2.47;2.25;;;22.10;31.50;;;;;;6310674;27;20345;-43
2022/03/25 02:40:26;;;;;;;3.22;2.35;;;22.00;31.40;;;;;;6310448;27;20041;-44
2022/03/25 02:43:28;;;;;;;3.08;2.40;;;22.00;31.30;;;;;;6317120;27;20958;-45
2022/03/25 02:46:43;;;;;;;2.70;2.45;;;22.00;31.30;;;;;;6296635;27;20050;-42
2022/03/25 02:49:45;;;;;;;2.97;2.50;;;22.00;31.40;;;;;;6316580;27;20050;-46
2022/03/25 02:52:48;;;;;;;3.20;2.50;;;21.80;31.20;;;;;;6305545;27;20222;-43
2022/03/25 02:55:49;;;;;;;3.13;2.78;;;21.80;31.30;;;;;;6303158;27;20070;-43
2022/03/25 02:58:51;;;;;;;2.50;2.30;;;22.00;31.40;;;;;;6326355;27;20041;-42
2022/03/25 03:01:53;;;;;;;3.13;2.50;;;21.80;31.30;;;;;;6323306;27;20768;-43
2022/03/25 03:04:54;;;;;;;2.95;2.55;;;21.90;31.30;;;;;;6324382;27;20132;-49
2022/03/25 03:07:57;;;;;;;;;;;22.00;31.30;;;;;;6318961;27;20146;-45
2022/03/25 03:10:59;;;;;;;2.70;2.35;;;21.90;31.30;;;;;;6322558;27;21393;-42
2022/03/25 03:14:00;;;;;;;2.88;2.30;;;21.80;31.20;;;;;;6318128;27;20788;-43
2022/03/25 03:17:02;;;;;;;3.25;2.60;;;21.90;31.30;;;;;;6318606;27;20034;-42
2022/03/25 03:20:04;;;;;;;2.83;2.50;;;21.80;31.20;;;;;;6324699;27;20027;-43
2022/03/25 03:23:07;;;;;;;3.13;2.70;;;21.90;31.30;;;;;;6299430;27;20047;-42
2022/03/25 03:26:09;;;;;;;3.40;2.67;;;21.90;31.40;;;;;;6323622;27;20051;-45
2022/03/25 03:29:10;;;;;;;2.38;2.17;;;21.80;31.30;;;;;;6322411;27;20073;-41
2022/03/25 03:32:12;;;;;;;;;;;21.90;31.30;;;;;;6322402;27;20043;-42
2022/03/25 03:35:14;;;;;;;2.53;2.22;;;21.90;31.30;;;;;;6321897;27;19923;-43
2022/03/25 03:38:16;;;;;;;2.83;2.28;;;21.80;31.20;;;;;;6325695;27;20042;-43
2022/03/25 03:41:17;;;;;;;2.90;2.53;;;21.80;31.20;;;;;;6323971;27;20163;-43
2022/03/25 03:44:19;;;;;;;2.42;2.00;;;21.90;31.30;;;;;;6316600;27;20055;-45
2022/03/25 03:47:20;;;;;;;2.75;2.45;;;21.90;31.40;;;;;;6325071;27;20750;-43
2022/03/25 03:50:22;;;;;;;2.92;2.50;;;21.90;31.30;;;;;;6328261;27;20027;-44
2022/03/25 03:53:24;;;;;;;2.88;2.47;;;21.80;31.30;;;;;;6323085;27;20042;-43
2022/03/25 03:56:25;;;;;;;2.50;2.25;;;21.70;31.20;;;;;;6322615;27;20961;-43
2022/03/25 03:59:27;;;;;;;;;;;21.70;31.20;;;;;;6324728;27;20030;-44
2022/03/25 04:02:28;;;;;;;2.78;2.40;;;21.80;31.30;;;;;;6321616;27;19926;-44
2022/03/25 04:05:31;;;;;;;2.88;2.45;;;21.80;31.20;;;;;;6323550;27;20235;-42
2022/03/25 04:08:35;;;;;;;2.33;2.13;;;21.80;31.20;;;;;;6326758;27;20039;-43
2022/03/25 04:11:36;;;;;;;2.95;2.50;;;21.70;31.20;;;;;;6323380;27;20935;-43
2022/03/25 04:14:38;;;;;;;2.90;2.30;;;21.80;31.20;;;;;;6322878;27;20283;-41
2022/03/25 04:17:41;;;;;;;2.85;2.40;;;21.80;31.20;;;;;;6322239;27;20041;-45
2022/03/25 04:20:43;;;;;;;2.58;2.38;;;21.80;31.20;;;;;;6330680;27;20031;-42
2022/03/25 04:23:45;;;;;;;2.45;2.08;;;21.70;31.20;;;;;;6313817;27;20169;-44
2022/03/25 04:26:46;;;;;;;3.00;2.28;;;21.60;31.20;;;;;;6316631;27;20108;-43
2022/03/25 04:29:48;;;;;;;;;;;21.70;31.40;;;;;;6317087;27;20042;-41
2022/03/25 04:32:50;;;;;;;2.70;2.30;;;21.80;31.60;;;;;;6321359;27;20004;-40
2022/03/25 04:35:51;;;;;;;2.60;2.20;;;21.70;31.60;;;;;;6307560;27;20047;-45
2022/03/25 04:38:53;;;;;;;;;;;21.70;31.60;;;;;;6321901;27;20891;-43
2022/03/25 04:41:55;;;;;;;4.05;2.25;;;21.70;31.60;;;;;;6325407;27;20684;-41
2022/03/25 04:44:56;;;;;;;2.63;2.30;;;21.80;31.60;;;;;;6322524;27;20038;-41
2022/03/25 04:47:58;;;;;;;3.65;2.58;;;21.80;31.60;;;;;;6322016;27;20046;-45
2022/03/25 04:51:00;;;;;;;3.03;2.40;;;21.90;31.60;;;;;;6316667;27;20046;-42
2022/03/25 04:54:03;;;;;;;2.80;2.50;;;21.70;31.50;;;;;;6308747;27;20937;-41
2022/03/25 04:57:05;;;;;;;3.17;2.60;;;21.70;31.50;;;;;;6317736;27;20123;-44
2022/03/25 05:00:07;;;;;;;2.60;2.40;;;21.70;31.50;;;;;;6318290;27;20039;-43
2022/03/25 05:03:09;;;;;;;2.65;2.45;;;21.60;31.50;;;;;;6304833;27;20083;-41
2022/03/25 05:06:11;;;;;;;2.75;2.30;;;21.70;31.50;;;;;;6321136;27;20043;-40
2022/03/25 05:09:14;;;;;;;2.50;2.30;;;21.70;31.50;;;;;;6321168;27;20035;-41
2022/03/25 05:12:16;;;;;;;2.65;2.20;;;21.70;31.50;;;;;;6320378;27;20108;-42
2022/03/25 05:15:17;;;;;;;2.90;2.40;;;21.70;31.50;;;;;;6319641;27;20042;-41
2022/03/25 05:18:19;;;;;;;3.20;2.55;;;21.50;31.30;;;;;;6317267;27;20031;-41
2022/03/25 05:21:21;;;;;;;2.65;2.10;;;21.60;31.40;;;;;;6316552;27;20039;-40
2022/03/25 05:24:23;;;;;;;2.70;2.20;;;21.60;31.40;;;;;;6315784;27;20073;-41
2022/03/25 05:27:24;;;;;;;3.13;2.55;;;21.60;31.40;;;;;;6321207;27;20058;-44
2022/03/25 05:30:28;;;;;;;2.50;2.17;;;21.60;31.40;;;;;;6318105;27;20069;-45
2022/03/25 05:33:29;;;;;;;3.33;2.35;;;21.60;31.40;;;;;;6314473;27;20035;-41
2022/03/25 05:36:31;;;;;;;;;;;21.60;31.40;;;;;;6316240;27;20042;-44
2022/03/25 05:39:33;;;;;;;2.35;2.08;;;21.60;31.40;;;;;;6314665;27;19968;-45
2022/03/25 05:42:36;;;;;;;2.53;2.00;;;21.50;31.30;;;;;;6316230;27;20038;-42
2022/03/25 05:45:37;;;;;;;2.47;2.15;;;21.50;31.40;;;;;;6317690;27;20103;-42
2022/03/25 05:48:39;;;;;;;2.15;1.77;;;21.50;31.40;;;;;;6316386;27;20132;-41
2022/03/25 05:51:41;;;;;;;2.15;1.73;;;21.80;31.60;;;;;;6311873;27;20035;-41
2022/03/25 05:54:43;;;;;;;1.98;1.77;;;21.50;31.40;;;;;;6313787;27;20043;-41
2022/03/25 05:57:44;;;;;;;2.53;2.05;;;21.50;31.40;;;;;;6315039;27;21032;-41
2022/03/25 06:00:46;;;;;;;1.85;1.52;;;21.50;31.50;;;;;;6308551;27;20074;-41
2022/03/25 06:03:47;;;;;;;2.38;1.85;;;21.50;32.00;;;;;;6304661;27;20067;-41
2022/03/25 06:06:49;;;;;;;;;;;21.50;31.40;;;;;;6310254;27;20075;-41
2022/03/25 06:09:52;;;;;;;2.20;1.80;;;21.50;31.40;;;;;;6310498;27;20038;-40
2022/03/25 06:12:53;;;;;;;1.92;1.73;;;21.50;31.30;;;;;;6297805;27;21084;-41
2022/03/25 06:15:55;;;;;;;;;;;21.60;31.50;;;;;;6305318;27;21442;-40
2022/03/25 06:18:57;;;;;;;;;;;21.60;31.40;;;;;;6312336;27;20034;-45
2022/03/25 06:21:58;;;;;;;2.47;1.92;;;21.50;31.30;;;;;;6313345;27;19926;-42
2022/03/25 06:25:01;;;;;;;1.75;1.50;;;21.50;31.30;;;;;;6292361;27;20047;-42
2022/03/25 06:28:04;;;;;;;2.08;1.77;;;21.50;31.30;;;;;;6313003;27;20093;-40
2022/03/25 06:31:08;;;;;;;2.25;2.00;;;21.50;31.30;;;;;;6313066;27;20070;-43
2022/03/25 06:34:09;;;;;;;2.45;1.85;;;21.40;31.30;;;;;;6312438;27;20883;-43
2022/03/25 06:37:11;;;;;;;;;;;21.40;31.30;;;;;;6312889;27;20054;-42
2022/03/25 06:40:15;;;;;;;2.05;1.77;;;21.50;31.30;;;;;;6307265;27;19974;-41
2022/03/25 06:43:16;;;;;;;1.83;1.48;;;21.30;31.20;;;;;;6284569;27;20049;-44
2022/03/25 06:46:18;;;;;;;1.90;1.60;;;21.50;31.30;;;;;;6312376;27;20848;-42
2022/03/25 06:49:20;;;;;;;2.00;1.60;;;21.50;31.40;;;;;;6307967;27;20040;-40
2022/03/25 06:52:22;;;;;;;1.65;1.50;;;21.50;31.40;;;;;;6304942;27;20761;-42
2022/03/25 06:55:25;;;;;;;2.40;2.00;;;21.40;31.30;;;;;;6301794;27;20047;-41
2022/03/25 06:58:27;;;;;;;2.13;1.67;;;21.50;31.40;;;;;;6304020;27;20043;-41
2022/03/25 07:01:31;;;;;;;2.50;1.70;;;21.50;31.40;;;;;;6293624;27;20097;-40
2022/03/25 07:04:34;;;;;;;1.98;1.77;;;21.50;31.40;;;;;;6274535;27;20142;-42
2022/03/25 07:07:37;;;;;;;1.73;1.60;;;21.50;31.40;;;;;;6295426;27;20055;-44
2022/03/25 07:10:40;;;;;;;1.95;1.65;;;21.50;31.40;;;;;;6262229;27;20150;-44
2022/03/25 07:13:42;;;;;;;2.00;1.55;;;21.50;31.50;;;;;;6289337;27;20053;-43
2022/03/25 07:16:43;;;;;;;2.28;1.90;;;21.50;31.50;;;;;;6270242;27;20520;-43
2022/03/25 07:19:45;;;;;;;1.95;1.60;;;21.40;31.40;;;;;;6287572;27;20139;-45
2022/03/25 07:22:49;;;;;;;1.52;1.42;;;21.50;31.50;;;;;;6287820;27;20155;-41
2022/03/25 07:25:51;;;;;;;2.20;2.00;;;21.50;31.60;;;;;;6275462;27;20153;-44
2022/03/25 07:28:53;;;;;;;2.55;1.83;;;21.40;31.50;;;;;;6281896;27;20146;-42
2022/03/25 07:31:54;;;;;;;1.90;1.50;;;21.50;31.70;;;;;;6284512;27;20093;-42
2022/03/25 07:34:56;;;;;;;2.47;2.00;;;21.60;31.60;;;;;;6274110;27;20738;-44
2022/03/25 07:37:58;;;;;;;1.95;1.48;;;21.60;31.60;;;;;;6263665;27;20051;-41
2022/03/25 07:41:00;;;;;;;2.40;1.77;;;21.60;31.60;;;;;;6261386;27;20133;-42
2022/03/25 07:44:02;;;;;;;2.10;1.67;;;21.60;31.60;;;;;;6245444;27;20032;-41
2022/03/25 07:47:05;;;;;;;2.50;2.00;;;21.60;31.70;;;;;;6254925;27;20038;-43
2022/03/25 07:50:09;;;;;;;2.10;1.65;;;21.50;31.70;;;;;;6252026;27;20070;-41
2022/03/25 07:53:10;;;;;;;2.13;1.60;;;21.70;31.90;;;;;;6243547;27;21007;-41
2022/03/25 07:56:13;;;;;;;3.35;2.72;;;21.60;31.90;;;;;;6214477;27;20043;-41
2022/03/25 07:59:15;;;;;;;4.85;3.65;;;21.70;32.00;;;;;;6215579;27;20164;-43
2022/03/25 08:02:17;;;;;;;4.22;3.72;;;21.70;32.10;;;;;;6175083;27;20039;-42
2022/03/25 08:05:18;;;;;;;6.07;3.90;;;21.70;32.10;;;;;;6183109;27;20049;-41
2022/03/25 08:08:20;;;;;;;6.85;4.05;;;21.70;32.10;;;;;;6162540;27;20057;-41
2022/03/25 08:11:22;;;;;;;7.38;5.68;;;21.70;32.10;;;;;;6205426;27;20166;-42
2022/03/25 08:14:24;;;;;;;6.20;4.00;;;21.70;32.10;;;;;;6203795;27;20148;-42
2022/03/25 08:17:25;;;;;;;3.63;3.10;;;21.70;32.10;;;;;;6201335;27;20079;-42
2022/03/25 08:20:28;;;;;;;4.28;3.40;;;21.70;32.20;;;;;;6197480;27;20043;-40
2022/03/25 08:30:01;;;;;;;2.90;2.60;;;21.70;32.20;;;;;;6208924;27;20043;-41
2022/03/25 08:33:04;;;;;;;2.78;2.25;;;21.80;32.20;;;;;;6193411;27;20074;-41
2022/03/25 08:36:06;;;;;;;3.38;2.30;;;21.80;32.20;;;;;;6169715;27;22471;-42
2022/03/25 08:39:08;;;;;;;4.65;2.90;;;21.80;32.10;;;;;;6217313;27;20050;-41
2022/03/25 08:42:10;;;;;;;3.53;2.17;;;22.00;32.40;;;;;;6194056;27;20039;-41
2022/03/25 08:45:14;;;;;;;2.97;2.67;;;21.80;32.20;;;;;;6208244;27;20051;-41
2022/03/25 08:48:16;;;;;;;3.03;2.63;;;21.80;32.10;;;;;;6200181;27;20153;-41
2022/03/25 08:51:18;;;;;;;3.85;2.47;;;21.90;32.10;;;;;;6212995;27;20076;-42
2022/03/25 08:54:19;;;;;;;4.53;2.90;;;21.90;32.00;;;;;;6204639;27;20271;-41
2022/03/25 08:57:21;;;;;;;3.00;2.42;;;21.80;31.90;;;;;;6197148;27;20162;-41
2022/03/25 09:00:23;;;;;;;3.42;2.75;;;21.90;32.00;;;;;;6201651;27;20039;-41
2022/03/25 09:03:25;;;;;;;3.20;2.67;;;21.90;32.00;;;;;;6181934;27;20035;-44
2022/03/25 09:06:27;;;;;;;3.55;2.83;;;21.90;31.90;;;;;;6185255;27;20043;-41
2022/03/25 09:09:29;;;;;;;3.40;3.10;;;21.90;31.90;;;;;;6186911;27;20190;-41
2022/03/25 09:12:32;;;;;;;3.63;2.95;;;21.90;31.80;;;;;;6172764;27;20047;-42
2022/03/25 09:15:34;;;;;;;3.50;3.00;;;22.00;31.90;;;;;;6196344;27;20074;-40
2022/03/25 09:18:36;;;;;;;2.97;2.53;;;22.00;31.80;;;;;;6210253;27;20118;-41
2022/03/25 09:21:38;;;;;;;3.67;3.00;;;22.00;31.80;;;;;;6167948;27;20051;-42
2022/03/25 09:24:39;;;;;;;;;;;21.90;31.70;;;;;;6182537;27;20119;-41
2022/03/25 09:27:41;;;;;;;4.55;3.03;;;22.10;31.80;;;;;;6202972;27;19934;-40
2022/03/25 09:30:43;;;;;;;3.30;2.97;;;22.10;31.70;;;;;;6187882;27;20039;-41
2022/03/25 09:33:45;;;;;;;3.60;3.00;;;22.10;31.70;;;;;;6196291;27;21175;-41
2022/03/25 09:36:46;;;;;;;4.25;3.08;;;22.10;31.80;;;;;;6187320;27;20043;-41
2022/03/25 09:39:48;;;;;;;3.70;3.30;;;22.10;31.70;;;;;;6202395;27;20144;-42
2022/03/25 09:42:53;;;;;;;3.67;3.00;;;22.20;31.70;;;;;;6187848;27;21209;-41
2022/03/25 09:45:56;;;;;;;4.13;2.67;;;22.20;31.80;;;;;;6190091;27;20151;-41
2022/03/25 09:48:58;;;;;;;3.78;3.03;;;22.20;31.80;;;;;;6202440;27;20042;-43
2022/03/25 09:52:03;;;;;;;3.30;2.65;;;22.30;31.80;;;;;;6189757;27;20157;-41
2022/03/25 09:55:05;;;;;;;3.78;3.28;;;22.10;31.70;;;;;;6190369;27;20103;-43
2022/03/25 09:58:09;;;;;;;4.28;3.33;;;22.30;31.90;;;;;;6138938;27;20154;-41
2022/03/25 10:01:11;;;;;;;4.05;3.33;;;22.30;31.80;;;;;;6196326;27;20044;-43
2022/03/25 10:04:38;;;;;;;4.00;2.78;;;22.40;31.80;;;;;;6172084;27;20918;-42
2022/03/25 10:07:44;;;;;;;4.47;3.15;;;22.30;31.80;;;;;;6160578;27;20139;-41
2022/03/25 10:10:46;;;;;;;3.83;3.00;;;22.30;31.80;;;;;;6176274;27;20035;-41
2022/03/25 10:13:50;;;;;;;3.47;3.08;;;22.40;31.80;;;;;;6170401;27;20134;-41
2022/03/25 10:16:53;;;;;;;3.92;3.40;;;22.40;31.80;;;;;;6164647;27;20886;-41
2022/03/25 10:19:55;;;;;;;3.75;3.10;;;22.40;31.80;;;;;;6184142;27;20051;-42
2022/03/25 10:23:06;;;;;;;4.10;3.35;;;22.40;31.80;;;;;;6175000;27;20157;-42
2022/03/25 10:26:08;;;;;;;3.88;3.30;;;22.40;31.90;;;;;;6153700;27;20472;-42
2022/03/25 10:29:21;;;;;;;3.50;3.00;;;22.50;31.90;;;;;;6192751;27;20050;-43
2022/03/25 10:32:26;;;;;;;3.92;3.20;;;22.50;31.90;;;;;;6202156;27;20043;-41
2022/03/25 10:35:28;;;;;;;3.03;2.67;;;22.50;31.90;;;;;;6200912;27;20067;-42
2022/03/25 10:38:41;;;;;;;3.80;3.15;;;22.50;31.90;;;;;;6190464;27;20185;-40
2022/03/25 10:41:46;;;;;;;3.30;2.95;;;22.50;31.80;;;;;;6189563;27;21922;-41
2022/03/25 10:44:48;;;;;;;3.45;2.67;;;22.60;31.90;;;;;;6175665;27;21392;-42
2022/03/25 10:48:10;;;;;;;2.92;2.63;;;22.60;31.80;;;;;;6161279;27;21702;-41
2022/03/25 10:51:12;;;;;;;3.38;2.63;;;22.60;31.90;;;;;;6182359;27;20304;-44
2022/03/25 10:54:14;;;;;;;3.15;2.85;;;22.60;31.80;;;;;;6180947;27;20121;-41
2022/03/25 10:57:17;;;;;;;3.30;2.75;;;22.60;31.80;;;;;;6193491;27;20127;-41
2022/03/25 11:00:20;;;;;;;4.50;2.90;;;22.70;31.90;;;;;;6159760;27;20051;-42
2022/03/25 11:03:23;;;;;;;4.35;2.90;;;22.70;31.80;;;;;;6182722;27;20038;-41
2022/03/25 11:06:25;;;;;;;3.03;2.45;;;22.70;31.80;;;;;;6204123;27;20046;-41
2022/03/25 11:09:27;;;;;;;2.65;2.40;;;22.50;31.70;;;;;;6220209;27;20655;-41
2022/03/25 11:12:30;;;;;;;3.20;2.80;;;22.70;31.80;;;;;;6198655;27;21668;-42
2022/03/25 11:15:33;;;;;;;3.08;2.50;;;22.70;31.80;;;;;;6208771;27;21494;-42
2022/03/25 11:18:38;;;;;;;2.97;2.35;;;22.70;31.80;;;;;;6206231;27;20169;-42
2022/03/25 11:21:41;;;;;;;3.47;3.00;;;22.70;31.80;;;;;;6215637;27;21189;-42
2022/03/25 11:24:47;;;;;;;3.03;2.55;;;22.80;31.80;;;;;;6206401;27;20047;-43
2022/03/25 11:27:53;;;;;;;3.05;2.70;;;22.80;31.80;;;;;;6224684;27;20051;-44
2022/03/25 11:31:00;;;;;;;3.20;2.42;;;22.70;31.70;;;;;;6202428;27;21260;-42
2022/03/25 11:34:09;;;;;;;3.42;2.70;;;22.70;31.70;;;;;;6191122;27;20039;-42
2022/03/25 11:37:21;;;;;;;3.13;2.67;;;22.80;31.80;;;;;;6221259;27;22236;-41
2022/03/25 11:40:28;;;;;;;3.38;2.92;;;22.90;31.70;;;;;;6230346;27;21073;-43
2022/03/25 11:43:30;;;;;;;3.58;2.38;;;22.90;31.70;;;;;;6251729;27;20042;-45
2022/03/25 11:46:32;;;;;;;;;;;22.90;31.70;;;;;;6250728;27;20041;-41
2022/03/25 11:49:36;;;;;;;4.75;2.75;;;22.90;31.70;;;;;;6266644;27;19927;-42
2022/03/25 11:52:37;;;;;;;2.83;2.47;;;22.90;31.60;;;;;;6239170;27;20047;-41
2022/03/25 11:55:53;;;;;;;3.13;2.63;;;22.90;31.60;;;;;;6258047;27;20067;-42
2022/03/25 11:58:59;;;;;;;2.78;2.33;;;22.90;31.60;;;;;;6254721;27;20050;-42
2022/03/25 12:02:24;;;;;;;2.97;2.22;;;23.00;31.60;;;;;;6266146;27;20039;-43
2022/03/25 12:05:37;;;;;;;3.08;2.60;;;23.00;31.70;;;;;;6235166;27;20169;-42
2022/03/25 12:08:39;;;;;;;2.80;2.45;;;23.00;31.60;;;;;;6249785;27;21108;-43
2022/03/25 12:11:51;;;;;;;3.33;2.80;;;23.00;31.60;;;;;;6264256;27;20137;-44
2022/03/25 12:15:04;;;;;;;;;;;23.00;32.30;;;;;;6227064;27;20050;-42
2022/03/25 12:18:33;;;;;;;3.55;2.88;;;23.00;31.50;;;;;;6260944;27;19927;-42
2022/03/25 12:21:50;;;;;;;3.05;2.70;;;23.10;31.50;;;;;;6262009;27;20035;-42
2022/03/25 12:24:53;;;;;;;3.35;2.85;;;23.10;31.50;;;;;;6236793;27;20055;-42
2022/03/25 12:27:55;;;;;;;3.75;3.22;;;23.10;31.50;;;;;;6244659;27;20042;-41
2022/03/25 12:31:02;;;;;;;4.60;3.25;;;23.10;31.50;;;;;;6257875;27;20031;-41
2022/03/25 12:34:05;;;;;;;3.75;3.22;;;23.10;31.50;;;;;;6252756;27;20337;-42
2022/03/25 12:37:11;;;;;;;4.50;3.20;;;23.10;31.50;;;;;;6250848;27;20047;-42
2022/03/25 12:40:16;;;;;;;4.38;3.50;;;23.10;31.50;;;;;;6234096;27;20081;-42
2022/03/25 12:43:17;;;;;;;4.03;3.20;;;23.10;31.50;;;;;;6204751;27;20041;-43
2022/03/25 12:46:24;;;;;;;3.90;2.80;;;23.20;31.60;;;;;;6220020;27;20142;-42
2022/03/25 12:49:26;;;;;;;3.78;3.20;;;23.20;31.60;;;;;;6226321;27;20880;-42
2022/03/25 12:52:32;;;;;;;5.50;3.55;;;24.40;32.20;;;;;;6216553;27;21004;-44
2022/03/25 12:55:38;;;;;;;3.25;2.83;;;23.20;31.90;;;;;;6159914;27;20062;-42
2022/03/25 12:58:40;;;;;;;4.18;3.78;;;23.40;31.80;;;;;;6234880;27;20150;-42
2022/03/25 13:01:45;;;;;;;4.05;3.42;;;23.20;31.80;;;;;;6184067;27;20182;-42
2022/03/25 13:04:47;;;;;;;3.72;3.15;;;23.20;31.80;;;;;;6168514;27;20043;-42
2022/03/25 13:07:52;;;;;;;3.63;2.92;;;23.10;31.80;;;;;;6183074;27;20038;-43
2022/03/25 13:10:59;;;;;;;3.70;3.05;;;23.30;31.90;;;;;;6170621;27;20730;-42
2022/03/25 13:14:01;;;;;;;3.90;3.45;;;23.30;31.90;;;;;;6185789;27;20053;-43
2022/03/25 13:17:02;;;;;;;3.40;3.05;;;23.20;31.70;;;;;;6198085;27;20150;-43
2022/03/25 13:20:26;;;;;;;3.45;2.95;;;23.30;31.70;;;;;;6200287;27;20112;-42
2022/03/25 13:23:29;;;;;;;3.70;3.00;;;23.30;31.60;;;;;;6229359;27;20955;-42
2022/03/25 13:26:31;;;;;;;3.35;3.05;;;23.30;31.50;;;;;;6190057;27;20072;-42
2022/03/25 13:29:33;;;;;;;3.83;3.10;;;23.30;31.40;;;;;;6205896;27;22429;-42
2022/03/25 13:32:36;;;;;;;3.85;3.42;;;23.40;31.30;;;;;;6216589;27;20045;-42
2022/03/25 13:35:41;;;;;;;3.85;3.15;;;23.40;31.10;;;;;;6186626;27;20038;-42
2022/03/25 13:38:47;;;;;;;4.10;3.05;;;23.30;30.90;;;;;;6180413;27;20053;-42
2022/03/25 13:41:48;;;;;;;4.10;3.30;;;23.40;30.80;;;;;;6201933;27;20043;-42
2022/03/25 13:44:50;;;;;;;4.40;3.10;;;23.40;30.70;;;;;;6190522;27;20061;-42
2022/03/25 13:48:01;;;;;;;3.50;3.20;;;23.40;30.60;;;;;;6183520;27;20173;-42
2022/03/25 13:51:02;;;;;;;3.45;3.00;;;23.40;30.50;;;;;;6194913;27;20885;-43
2022/03/25 13:54:06;;;;;;;3.83;2.95;;;23.40;30.60;;;;;;6189879;27;20227;-42
2022/03/25 13:57:16;;;;;;;3.67;3.30;;;23.30;30.40;;;;;;6190746;27;20039;-43
2022/03/25 14:00:27;;;;;;;3.67;3.25;;;23.40;30.40;;;;;;6168353;27;20047;-41
2022/03/25 14:03:31;;;;;;;4.38;3.55;;;23.40;30.20;;;;;;6146848;27;20035;-42
2022/03/25 14:06:35;;;;;;;4.05;3.22;;;23.40;30.10;;;;;;6190543;27;20076;-42
2022/03/25 14:10:01;;;;;;;4.20;3.20;;;23.50;30.10;;;;;;6188539;27;20111;-42
2022/03/25 14:13:05;;;;;;;3.58;3.10;;;23.40;30.00;;;;;;6200469;27;20107;-42
2022/03/25 14:16:18;;;;;;;3.45;2.97;;;23.50;30.10;;;;;;6210744;27;20047;-42
2022/03/25 14:19:20;;;;;;;3.90;3.38;;;23.50;30.00;;;;;;6205026;27;20071;-42
2022/03/25 14:22:22;;;;;;;3.80;3.30;;;23.50;30.00;;;;;;6195792;27;21681;-43
2022/03/25 14:25:30;;;;;;;4.20;3.25;;;23.50;29.90;;;;;;6210651;27;20178;-45
2022/03/25 14:28:31;;;;;;;4.43;3.33;;;23.50;29.80;;;;;;6196904;27;20510;-42
2022/03/25 14:31:33;;;;;;;4.13;3.72;;;23.50;29.70;;;;;;6221702;27;20114;-44
2022/03/25 14:34:35;;;;;;;4.72;3.80;;;23.40;29.60;;;;;;6205194;27;20046;-44
2022/03/25 14:37:37;;;;;;;4.28;3.63;;;23.50;29.60;;;;;;6180243;27;20101;-42
2022/03/25 14:40:41;;;;;;;3.95;3.55;;;23.50;29.50;;;;;;6178689;27;20193;-42
2022/03/25 14:43:42;;;;;;;4.85;3.85;;;23.50;29.40;;;;;;6211951;27;20041;-44
2022/03/25 14:46:47;;;;;;;3.88;3.22;;;23.60;29.40;;;;;;6207638;27;20178;-42
2022/03/25 14:49:48;;;;;;;3.90;3.53;;;23.50;29.30;;;;;;6203217;27;20050;-42
2022/03/25 14:52:55;;;;;;;4.22;3.47;;;23.40;29.10;;;;;;6203998;27;20043;-42
2022/03/25 14:55:57;;;;;;;6.45;4.13;;;23.50;29.10;;;;;;6213324;27;20077;-42
2022/03/25 14:58:59;;;;;;;4.40;3.40;;;23.50;29.00;;;;;;6197484;27;21264;-42
2022/03/25 15:02:01;;;;;;;3.88;3.28;;;23.50;29.00;;;;;;6209829;27;21223;-43
2022/03/25 15:05:03;;;;;;;4.05;3.60;;;23.60;29.00;;;;;;6193185;27;20071;-42
2022/03/25 15:08:05;;;;;;;3.67;3.22;;;23.50;28.90;;;;;;6216157;27;20583;-43
2022/03/25 15:11:08;;;;;;;4.50;3.60;;;23.50;28.80;;;;;;6199888;27;20030;-43
2022/03/25 15:14:10;;;;;;;4.25;3.85;;;23.50;28.60;;;;;;6198738;27;20035;-43
2022/03/25 15:17:11;;;;;;;4.13;3.40;;;23.50;28.50;;;;;;6218569;27;20041;-42
2022/03/25 15:20:13;;;;;;;4.13;3.00;;;23.50;28.50;;;;;;6216850;27;20067;-45
2022/03/25 15:23:16;;;;;;;4.35;3.42;;;23.50;28.40;;;;;;6201857;27;20043;-42
2022/03/25 15:26:19;;;;;;;4.20;3.75;;;23.50;28.40;;;;;;6213312;27;20070;-42
2022/03/25 15:35:50;;;;;;;4.40;3.70;;;23.60;28.20;;;;;;6211554;27;21628;-44
2022/03/25 15:39:12;;;;;;;4.22;3.60;;;23.60;28.20;;;;;;6215342;27;20046;-42
2022/03/25 15:42:15;;;;;;;3.75;3.15;;;23.60;28.20;;;;;;6219882;27;20039;-43
2022/03/25 15:45:20;;;;;;;5.22;3.70;;;23.60;28.30;;;;;;6219584;27;20121;-42
2022/03/25 15:48:21;;;;;;;4.45;3.97;;;23.50;28.30;;;;;;6213143;27;20039;-43
2022/03/25 15:51:23;;;;;;;5.07;3.50;;;23.60;28.50;;;;;;6218605;27;20171;-42
2022/03/25 15:54:25;;;;;;;4.13;3.47;;;23.50;28.50;;;;;;6230435;27;21573;-43
2022/03/25 15:57:27;;;;;;;4.60;3.65;;;23.60;28.60;;;;;;6246989;27;21169;-42
2022/03/25 16:00:31;;;;;;;4.00;3.20;;;23.60;28.60;;;;;;6231928;27;20150;-42
2022/03/25 16:03:32;;;;;;;4.10;3.63;;;23.50;28.60;;;;;;6212277;27;20042;-42
2022/03/25 16:06:34;;;;;;;4.82;3.53;;;23.60;28.70;;;;;;6225940;27;21938;-44
2022/03/25 16:09:40;;;;;;;3.75;3.28;;;23.60;28.70;;;;;;6234537;27;20050;-43
2022/03/25 16:12:43;;;;;;;4.35;3.95;;;23.60;28.80;;;;;;6212705;27;20050;-43